Time;durP1;ratioP1;P1;durP2;ratioP2;P2;SDS_P1;SDS_P2;PMS_P1;PMS_P2;Temp;Humidity;BMP_temperature;BMP_pressure;BME280_temperature;BME280_humidity;BME280_pressure;Samples;Min_cycle;Max_cycle;Signal;HPM_P1;HPM_P2
2023/02/27 00:02:14;;;;;;;0.60;0.60;;;0.80;99.90;;;;;;5052930;28;20204;-80
2023/02/27 00:04:40;;;;;;;0.60;0.60;;;0.80;99.90;;;;;;5035022;28;20217;-80
2023/02/27 00:07:07;;;;;;;0.70;0.70;;;0.90;99.90;;;;;;5052775;28;20190;-80
2023/02/27 00:09:33;;;;;;;0.60;0.60;;;1.00;99.90;;;;;;5052917;28;20200;-80
2023/02/27 00:11:59;;;;;;;0.60;0.60;;;1.20;99.90;;;;;;5053055;28;20189;-80
2023/02/27 00:14:25;;;;;;;0.63;0.63;;;1.50;99.90;;;;;;5034711;28;20252;-81
2023/02/27 00:16:50;;;;;;;0.60;0.60;;;1.60;99.90;;;;;;5053067;28;20328;-79
2023/02/27 00:19:17;;;;;;;0.70;0.70;;;1.60;99.90;;;;;;5052816;28;20263;-80
2023/02/27 00:21:43;;;;;;;0.63;0.63;;;1.60;99.90;;;;;;5052595;28;20717;-80
2023/02/27 00:24:09;;;;;;;0.70;0.70;;;1.50;99.90;;;;;;5052800;28;20236;-80
2023/02/27 00:26:36;;;;;;;0.50;0.50;;;1.50;99.90;;;;;;5052639;28;20197;-80
2023/02/27 00:29:03;;;;;;;0.52;0.52;;;1.50;99.90;;;;;;5052788;28;20186;-80
2023/02/27 00:31:29;;;;;;;0.70;0.70;;;1.50;99.90;;;;;;5052557;28;20193;-80
2023/02/27 00:33:55;;;;;;;0.70;0.70;;;1.60;99.90;;;;;;5052476;28;20267;-80
2023/02/27 00:36:21;;;;;;;0.60;0.60;;;1.60;99.90;;;;;;5052448;28;20664;-80
2023/02/27 00:38:47;;;;;;;0.60;0.60;;;1.60;99.90;;;;;;5052810;28;20204;-80
2023/02/27 00:41:13;;;;;;;0.80;0.80;;;1.60;99.90;;;;;;5034688;28;20193;-80
2023/02/27 00:43:39;;;;;;;0.80;0.80;;;1.70;99.90;;;;;;5034479;28;20217;-80
2023/02/27 00:46:05;;;;;;;0.70;0.70;;;1.80;99.90;;;;;;5034619;28;20197;-79
2023/02/27 00:48:31;;;;;;;0.50;0.50;;;1.70;99.90;;;;;;5062627;28;20315;-80
2023/02/27 00:50:56;;;;;;;0.60;0.60;;;1.70;99.90;;;;;;5072458;28;20651;-80
2023/02/27 00:53:23;;;;;;;0.60;0.60;;;1.60;99.90;;;;;;5072218;28;20189;-80
2023/02/27 00:55:49;;;;;;;0.60;0.60;;;1.50;99.90;;;;;;5064719;28;20648;-80
2023/02/27 00:58:14;;;;;;;0.60;0.60;;;1.80;99.90;;;;;;5034478;28;20284;-80
2023/02/27 01:00:40;;;;;;;0.60;0.60;;;1.90;99.90;;;;;;5052161;28;20262;-80
2023/02/27 01:03:06;;;;;;;0.50;0.50;;;2.10;99.90;;;;;;5061070;28;20654;-80
2023/02/27 01:05:32;;;;;;;0.60;0.60;;;2.30;99.90;;;;;;5054011;28;20579;-80
2023/02/27 01:07:58;;;;;;;0.60;0.60;;;2.40;99.90;;;;;;5072361;28;20207;-80
2023/02/27 01:10:24;;;;;;;0.60;0.60;;;2.40;99.90;;;;;;5072085;28;20189;-80
2023/02/27 01:12:49;;;;;;;0.60;0.60;;;2.50;99.90;;;;;;5054319;28;20197;-80
2023/02/27 01:15:15;;;;;;;0.60;0.60;;;2.60;99.90;;;;;;5054233;28;20196;-80
2023/02/27 01:17:41;;;;;;;0.60;0.60;;;2.70;99.90;;;;;;5072058;28;20540;-80
2023/02/27 01:20:08;;;;;;;0.60;0.60;;;2.80;99.90;;;;;;5054127;28;20208;-80
2023/02/27 01:22:34;;;;;;;0.57;0.57;;;2.80;99.90;;;;;;5071909;28;20220;-80
2023/02/27 01:25:00;;;;;;;0.70;0.70;;;2.70;99.90;;;;;;5072126;28;20205;-80
2023/02/27 01:27:26;;;;;;;0.60;0.60;;;2.70;99.90;;;;;;5056215;28;20283;-80
2023/02/27 01:29:52;;;;;;;0.57;0.57;;;2.60;99.90;;;;;;5076046;28;20197;-80
2023/02/27 01:32:17;;;;;;;0.52;0.52;;;2.70;99.90;;;;;;5056880;28;20193;-80
2023/02/27 01:34:43;;;;;;;0.60;0.60;;;2.80;99.90;;;;;;5056448;28;20221;-80
2023/02/27 01:37:09;;;;;;;0.60;0.60;;;2.90;99.90;;;;;;5055836;28;20208;-80
2023/02/27 01:39:35;;;;;;;0.60;0.60;;;2.80;99.90;;;;;;5055746;28;20217;-80
2023/02/27 01:42:01;;;;;;;0.60;0.60;;;2.80;99.90;;;;;;5037872;28;20202;-80
2023/02/27 01:44:29;;;;;;;0.60;0.60;;;2.60;99.90;;;;;;5045397;28;20220;-80
2023/02/27 01:46:56;;;;;;;0.40;0.40;;;2.60;99.90;;;;;;5057788;28;20664;-81
2023/02/27 01:49:30;;;;;;;0.80;0.80;;;2.70;99.90;;;;;;5075767;28;20185;-80
2023/02/27 01:52:04;;;;;;;0.60;0.60;;;2.70;99.90;;;;;;5069042;28;20248;-81
2023/02/27 01:54:38;;;;;;;0.60;0.60;;;2.60;99.90;;;;;;5055386;28;20599;-81
2023/02/27 01:57:05;;;;;;;0.80;0.80;;;2.60;99.90;;;;;;5037707;28;20664;-80
2023/02/27 01:59:35;;;;;;;0.50;0.50;;;2.70;99.90;;;;;;5037118;28;20194;-80
2023/02/27 02:02:06;;;;;;;0.70;0.70;;;2.80;99.90;;;;;;5034735;28;20212;-80
2023/02/27 02:04:36;;;;;;;0.65;0.65;;;2.90;99.90;;;;;;5054891;28;20247;-80
2023/02/27 02:07:06;;;;;;;0.60;0.60;;;3.00;99.90;;;;;;5037587;28;20201;-81
2023/02/27 02:09:36;;;;;;;0.70;0.70;;;3.00;99.90;;;;;;5055676;28;20209;-80
2023/02/27 02:12:03;;;;;;;0.60;0.60;;;3.10;99.90;;;;;;5037467;28;20695;-80
2023/02/27 02:14:29;;;;;;;0.70;0.70;;;3.10;99.90;;;;;;5037101;28;20209;-80
2023/02/27 02:17:16;;;;;;;0.60;0.60;;;3.10;99.90;;;;;;5055308;28;20247;-81
2023/02/27 02:19:44;;;;;;;0.60;0.60;;;3.10;99.90;;;;;;5037129;28;20246;-81
2023/02/27 02:22:31;;;;;;;0.70;0.70;;;3.10;99.90;;;;;;5055104;28;20281;-82
2023/02/27 02:25:17;;;;;;;0.80;0.80;;;3.10;99.90;;;;;;5037167;28;20232;-81
2023/02/27 02:27:52;;;;;;;0.60;0.60;;;3.10;99.90;;;;;;5037009;28;20632;-81
2023/02/27 02:30:18;;;;;;;0.60;0.60;;;3.10;99.90;;;;;;5055226;28;20185;-81
2023/02/27 02:33:07;;;;;;;0.50;0.50;;;3.20;99.90;;;;;;5036875;28;20520;-81
2023/02/27 02:35:52;;;;;;;0.63;0.63;;;3.10;99.90;;;;;;5041609;28;20688;-81
2023/02/27 02:38:40;;;;;;;0.70;0.70;;;3.10;99.90;;;;;;5035618;28;20288;-77
2023/02/27 02:41:43;;;;;;;0.60;0.60;;;3.10;99.90;;;;;;5048005;28;20656;-77
2023/02/27 02:44:18;;;;;;;0.70;0.70;;;3.20;99.90;;;;;;5056404;28;20218;-77
2023/02/27 02:47:05;;;;;;;0.60;0.60;;;3.20;99.90;;;;;;5056533;28;20192;-77
2023/02/27 02:49:44;;;;;;;0.70;0.70;;;3.20;99.90;;;;;;5038858;28;20194;-77
2023/02/27 02:52:26;;;;;;;0.50;0.50;;;3.20;99.90;;;;;;5036544;28;20280;-77
2023/02/27 02:55:00;;;;;;;0.50;0.50;;;3.30;99.90;;;;;;5036371;28;20288;-77
2023/02/27 02:57:36;;;;;;;0.70;0.70;;;3.20;99.90;;;;;;5054226;28;20652;-77
2023/02/27 03:00:13;;;;;;;0.50;0.50;;;3.20;99.90;;;;;;5054369;28;20201;-77
2023/02/27 03:02:45;;;;;;;0.80;0.80;;;3.20;99.90;;;;;;5028227;28;20386;-77
2023/02/27 03:05:22;;;;;;;0.60;0.60;;;3.20;99.90;;;;;;5016515;28;20218;-77
2023/02/27 03:08:12;;;;;;;0.70;0.70;;;3.10;99.90;;;;;;5016530;28;20684;-77
2023/02/27 03:10:59;;;;;;;0.52;0.52;;;3.10;99.90;;;;;;5016402;28;20198;-77
2023/02/27 03:13:50;;;;;;;0.60;0.60;;;3.00;99.90;;;;;;5016100;28;20205;-78
2023/02/27 03:16:25;;;;;;;0.80;0.80;;;2.90;99.90;;;;;;5034162;28;20731;-77
2023/02/27 03:19:00;;;;;;;0.60;0.60;;;2.90;99.90;;;;;;5034144;28;20196;-77
2023/02/27 03:21:42;;;;;;;0.70;0.70;;;2.80;99.90;;;;;;5033858;28;20722;-77
2023/02/27 03:24:13;;;;;;;0.80;0.80;;;2.70;99.90;;;;;;5016127;28;20237;-77
2023/02/27 03:26:42;;;;;;;0.63;0.63;;;2.80;99.90;;;;;;5033915;28;20244;-77
2023/02/27 03:29:17;;;;;;;0.60;0.60;;;2.70;99.90;;;;;;5033836;28;20245;-77
2023/02/27 03:31:50;;;;;;;0.70;0.70;;;2.70;99.90;;;;;;5033823;28;20221;-77
2023/02/27 03:34:32;;;;;;;0.70;0.70;;;2.80;99.90;;;;;;5015521;28;20198;-77
2023/02/27 03:37:01;;;;;;;0.70;0.70;;;2.90;99.90;;;;;;5025611;28;20218;-77
2023/02/27 03:39:48;;;;;;;0.63;0.63;;;2.80;99.90;;;;;;4996488;28;20249;-78
2023/02/27 03:42:30;;;;;;;0.60;0.60;;;2.90;99.90;;;;;;5013879;28;20209;-77
2023/02/27 03:45:17;;;;;;;0.70;0.70;;;2.80;99.90;;;;;;5006702;28;20629;-77
2023/02/27 03:47:43;;;;;;;0.60;0.60;;;2.80;99.90;;;;;;5015742;28;20297;-77
2023/02/27 03:50:10;;;;;;;0.55;0.55;;;2.80;99.90;;;;;;5015332;28;20194;-77
2023/02/27 03:52:36;;;;;;;0.70;0.70;;;2.80;99.90;;;;;;5033259;28;20237;-77
2023/02/27 03:55:10;;;;;;;0.80;0.80;;;2.80;99.90;;;;;;5033405;28;20247;-77
2023/02/27 03:57:37;;;;;;;0.70;0.70;;;2.70;99.90;;;;;;5015483;28;20228;-77
2023/02/27 04:00:04;;;;;;;0.60;0.60;;;2.80;99.90;;;;;;5015842;28;20198;-77
2023/02/27 04:02:32;;;;;;;0.70;0.70;;;2.80;99.90;;;;;;5009656;28;20225;-77
2023/02/27 04:04:57;;;;;;;0.70;0.70;;;2.70;99.90;;;;;;5033243;28;20210;-77
2023/02/27 04:07:26;;;;;;;0.50;0.50;;;2.70;99.90;;;;;;5031775;28;20199;-77
2023/02/27 04:10:14;;;;;;;0.60;0.60;;;2.60;99.90;;;;;;5033229;28;20269;-77
2023/02/27 04:12:42;;;;;;;0.63;0.63;;;2.50;99.90;;;;;;5033082;28;20202;-82
2023/02/27 04:15:45;;;;;;;0.50;0.50;;;2.40;99.90;;;;;;5031872;28;20202;-77
2023/02/27 04:18:17;;;;;;;0.60;0.60;;;2.40;99.90;;;;;;5033041;28;20276;-77
2023/02/27 04:20:43;;;;;;;0.68;0.68;;;2.30;99.90;;;;;;5031889;28;20202;-77
2023/02/27 04:23:27;;;;;;;0.63;0.63;;;2.10;99.90;;;;;;5033265;28;20201;-77
2023/02/27 04:26:05;;;;;;;0.60;0.60;;;2.00;99.90;;;;;;5031669;28;20569;-77
2023/02/27 04:28:34;;;;;;;0.60;0.60;;;1.80;99.90;;;;;;5032686;28;20244;-78
2023/02/27 04:31:49;;;;;;;0.60;0.60;;;1.70;99.90;;;;;;5031615;28;20198;-77
2023/02/27 04:34:41;;;;;;;0.57;0.57;;;1.60;99.90;;;;;;4971200;28;20222;-77
2023/02/27 04:37:17;;;;;;;0.70;0.70;;;1.40;99.90;;;;;;4974951;28;20357;-77
2023/02/27 04:40:00;;;;;;;0.52;0.52;;;1.30;99.90;;;;;;4974876;28;20678;-77
2023/02/27 04:42:32;;;;;;;0.70;0.70;;;1.20;99.90;;;;;;4955272;28;20207;-77
2023/02/27 04:45:03;;;;;;;0.80;0.80;;;1.10;99.90;;;;;;4955584;28;20306;-77
2023/02/27 04:47:35;;;;;;;0.63;0.63;;;1.00;99.90;;;;;;4955309;28;20192;-77
2023/02/27 04:50:08;;;;;;;0.70;0.70;;;1.00;99.90;;;;;;4971678;28;20196;-77
2023/02/27 04:52:44;;;;;;;0.63;0.63;;;0.90;99.90;;;;;;4955272;28;21068;-77
2023/02/27 04:55:30;;;;;;;0.50;0.50;;;0.80;99.90;;;;;;4955437;28;20684;-77
2023/02/27 04:58:08;;;;;;;0.60;0.60;;;0.80;99.90;;;;;;4971654;28;20200;-77
2023/02/27 05:00:35;;;;;;;0.70;0.70;;;0.80;99.90;;;;;;4971195;28;20204;-77
2023/02/27 05:03:15;;;;;;;0.65;0.65;;;0.70;99.90;;;;;;4970408;28;20239;-77
2023/02/27 05:05:43;;;;;;;0.60;0.60;;;0.70;99.90;;;;;;4955118;28;20290;-78
2023/02/27 05:08:17;;;;;;;0.60;0.60;;;0.60;99.90;;;;;;5000219;28;20665;-77
2023/02/27 05:11:17;;;;;;;0.60;0.60;;;0.60;99.90;;;;;;5031023;28;20198;-77
2023/02/27 05:13:51;;;;;;;0.60;0.60;;;0.70;99.90;;;;;;5026411;28;20301;-77
2023/02/27 05:16:25;;;;;;;0.70;0.70;;;0.70;99.90;;;;;;5031033;28;20567;-77
2023/02/27 05:18:51;;;;;;;0.57;0.57;;;0.80;99.90;;;;;;5030975;28;20194;-76
2023/02/27 05:21:32;;;;;;;0.60;0.60;;;0.90;99.90;;;;;;5032266;28;20665;-77
2023/02/27 05:24:16;;;;;;;0.50;0.50;;;0.80;99.90;;;;;;5030893;28;20677;-77
2023/02/27 05:26:52;;;;;;;0.57;0.57;;;0.80;99.90;;;;;;5046069;28;20189;-77
2023/02/27 05:29:23;;;;;;;0.70;0.70;;;0.80;99.90;;;;;;5058483;28;20272;-77
2023/02/27 05:31:58;;;;;;;0.60;0.60;;;0.70;99.90;;;;;;5072047;28;20189;-77
2023/02/27 05:34:36;;;;;;;0.60;0.60;;;0.70;99.90;;;;;;5053461;28;20193;-77
2023/02/27 05:37:17;;;;;;;0.50;0.50;;;0.60;99.90;;;;;;5051968;28;20201;-77
2023/02/27 05:39:45;;;;;;;0.60;0.60;;;0.60;99.90;;;;;;5051892;28;20579;-77
2023/02/27 05:42:23;;;;;;;0.60;0.60;;;0.60;99.90;;;;;;5051970;28;20198;-76
2023/02/27 05:44:56;;;;;;;0.70;0.70;;;0.60;99.90;;;;;;5051890;28;20205;-77
2023/02/27 05:47:27;;;;;;;0.50;0.50;;;0.70;99.90;;;;;;5050398;28;20193;-77
2023/02/27 05:50:07;;;;;;;0.60;0.60;;;0.70;99.90;;;;;;5052012;28;20565;-77
2023/02/27 05:52:34;;;;;;;0.70;0.70;;;0.70;99.90;;;;;;5051666;28;20221;-77
2023/02/27 05:55:20;;;;;;;0.60;0.60;;;0.70;99.90;;;;;;5051908;28;20197;-77
2023/02/27 05:58:03;;;;;;;0.60;0.60;;;0.80;99.90;;;;;;5050581;28;20208;-77
2023/02/27 06:00:32;;;;;;;0.60;0.60;;;0.80;99.90;;;;;;5051612;28;20299;-77
2023/02/27 06:02:58;;;;;;;0.50;0.50;;;0.90;99.90;;;;;;5051686;28;20778;-77
2023/02/27 06:05:25;;;;;;;0.50;0.50;;;0.90;99.90;;;;;;5033647;28;20312;-77
2023/02/27 06:07:51;;;;;;;0.60;0.60;;;0.90;99.90;;;;;;5033850;28;20284;-76
2023/02/27 06:10:19;;;;;;;0.63;0.63;;;1.00;99.90;;;;;;5051752;28;20750;-77
2023/02/27 06:12:45;;;;;;;0.60;0.60;;;1.10;99.90;;;;;;5034759;28;20564;-77
2023/02/27 06:15:11;;;;;;;0.65;0.65;;;1.10;99.90;;;;;;5037418;28;20280;-77
2023/02/27 06:17:38;;;;;;;0.93;0.93;;;1.10;99.90;;;;;;5037511;28;20263;-76
2023/02/27 06:20:05;;;;;;;0.60;0.60;;;1.10;99.90;;;;;;5037228;28;20247;-76
2023/02/27 06:22:32;;;;;;;0.70;0.70;;;1.00;99.90;;;;;;5036760;28;20224;-77
2023/02/27 06:24:58;;;;;;;0.63;0.63;;;1.10;99.90;;;;;;5056680;28;20279;-77
2023/02/27 06:27:25;;;;;;;0.70;0.70;;;1.00;99.90;;;;;;5074917;28;20656;-77
2023/02/27 06:29:52;;;;;;;0.95;0.95;;;1.00;99.90;;;;;;5074973;28;20185;-77
2023/02/27 06:32:18;;;;;;;0.60;0.60;;;1.10;99.90;;;;;;5073595;28;20185;-77
2023/02/27 06:34:44;;;;;;;0.60;0.60;;;1.10;99.90;;;;;;5055065;28;20194;-77
2023/02/27 06:37:10;;;;;;;0.60;0.60;;;1.10;99.90;;;;;;5037002;28;20686;-77
2023/02/27 06:39:36;;;;;;;0.60;0.60;;;1.20;99.90;;;;;;5036691;28;20202;-77
2023/02/27 06:42:02;;;;;;;0.60;0.60;;;1.20;99.90;;;;;;5036862;28;20258;-77
2023/02/27 06:44:28;;;;;;;0.70;0.70;;;1.40;99.90;;;;;;5054485;28;20209;-77
2023/02/27 06:46:54;;;;;;;0.70;0.70;;;1.40;99.90;;;;;;5036816;28;20197;-77
2023/02/27 06:49:20;;;;;;;0.50;0.50;;;1.40;99.90;;;;;;5054371;28;20190;-76
2023/02/27 06:51:46;;;;;;;0.60;0.60;;;1.40;99.90;;;;;;5054476;28;20659;-76
2023/02/27 06:54:12;;;;;;;0.60;0.60;;;1.40;99.90;;;;;;5054525;28;20200;-77
2023/02/27 06:56:37;;;;;;;0.70;0.70;;;1.40;99.90;;;;;;5036557;28;20719;-77
2023/02/27 06:59:03;;;;;;;0.90;0.90;;;1.50;99.90;;;;;;5036704;28;20660;-77
2023/02/27 07:01:29;;;;;;;0.70;0.70;;;1.50;99.90;;;;;;5036017;28;20201;-77
2023/02/27 07:03:54;;;;;;;0.80;0.80;;;1.60;99.90;;;;;;5048398;28;20320;-76
2023/02/27 07:06:20;;;;;;;0.60;0.60;;;1.60;99.90;;;;;;5052880;28;20731;-76
2023/02/27 07:08:46;;;;;;;0.80;0.80;;;1.70;99.90;;;;;;5053054;28;20194;-77
2023/02/27 07:11:12;;;;;;;0.60;0.60;;;1.70;99.90;;;;;;5052990;28;20193;-76
2023/02/27 07:13:38;;;;;;;0.60;0.60;;;1.80;99.90;;;;;;5053155;28;20251;-76
2023/02/27 07:16:04;;;;;;;0.60;0.60;;;1.80;99.90;;;;;;5054161;28;20193;-76
2023/02/27 07:18:29;;;;;;;0.50;0.50;;;1.90;99.90;;;;;;5063473;28;20197;-77
2023/02/27 07:20:55;;;;;;;0.60;0.60;;;1.90;99.90;;;;;;5072780;28;20258;-76
2023/02/27 07:23:22;;;;;;;0.57;0.57;;;1.90;99.90;;;;;;5073680;28;20249;-77
2023/02/27 07:25:48;;;;;;;0.60;0.60;;;1.90;99.90;;;;;;5071935;28;20204;-77
2023/02/27 07:28:14;;;;;;;0.60;0.60;;;2.00;99.90;;;;;;5073857;28;20193;-76
2023/02/27 07:30:40;;;;;;;0.60;0.60;;;2.00;99.90;;;;;;5056872;28;20197;-76
2023/02/27 07:33:06;;;;;;;0.60;0.60;;;2.00;99.90;;;;;;5049047;28;20217;-77
2023/02/27 07:35:32;;;;;;;0.50;0.50;;;2.00;99.90;;;;;;5048983;28;20674;-76
2023/02/27 07:37:58;;;;;;;0.60;0.60;;;2.10;99.90;;;;;;5032574;28;20280;-76
2023/02/27 07:40:24;;;;;;;0.70;0.70;;;2.10;99.90;;;;;;5032219;28;20661;-77
2023/02/27 07:42:49;;;;;;;1.05;0.98;;;2.20;99.90;;;;;;5048972;28;20209;-77
2023/02/27 07:45:19;;;;;;;0.60;0.60;;;2.20;99.90;;;;;;5032347;28;20221;-76
2023/02/27 07:47:45;;;;;;;0.60;0.60;;;2.30;99.90;;;;;;5033595;28;20602;-77
2023/02/27 07:50:14;;;;;;;0.60;0.60;;;2.40;99.90;;;;;;5033522;28;20183;-77
2023/02/27 07:52:43;;;;;;;0.50;0.50;;;2.50;99.90;;;;;;5047672;28;20763;-77
2023/02/27 07:55:11;;;;;;;0.57;0.57;;;2.60;99.90;;;;;;5052089;28;20207;-77
2023/02/27 07:57:37;;;;;;;0.50;0.50;;;2.60;99.90;;;;;;5053243;28;20684;-77
2023/02/27 08:00:08;;;;;;;0.60;0.60;;;2.70;99.90;;;;;;5053274;28;20220;-77
2023/02/27 08:02:34;;;;;;;0.60;0.60;;;2.70;99.90;;;;;;5052875;28;20718;-77
2023/02/27 08:04:59;;;;;;;0.60;0.60;;;2.80;99.90;;;;;;5035298;28;20217;-77
2023/02/27 08:07:25;;;;;;;0.65;0.65;;;2.90;99.90;;;;;;5035048;28;20228;-77
2023/02/27 08:09:51;;;;;;;0.60;0.60;;;3.00;99.90;;;;;;5035238;28;20200;-76
2023/02/27 08:12:17;;;;;;;0.77;0.77;;;3.00;99.90;;;;;;5035227;28;20197;-77
2023/02/27 08:14:42;;;;;;;0.70;0.70;;;3.10;99.90;;;;;;5035049;28;20202;-76
2023/02/27 08:17:08;;;;;;;0.60;0.60;;;3.10;99.90;;;;;;5053017;28;20243;-77
2023/02/27 08:19:34;;;;;;;0.60;0.60;;;3.20;99.90;;;;;;5053829;28;20245;-76
2023/02/27 08:22:00;;;;;;;0.60;0.60;;;3.30;99.90;;;;;;5055015;28;20211;-77
2023/02/27 08:24:26;;;;;;;0.50;0.50;;;3.40;99.90;;;;;;5072529;28;20567;-76
2023/02/27 08:26:51;;;;;;;0.70;0.70;;;3.50;99.90;;;;;;5038548;28;20194;-77
2023/02/27 08:29:17;;;;;;;0.60;0.60;;;3.50;99.90;;;;;;5035100;28;20198;-77
2023/02/27 08:31:43;;;;;;;0.60;0.60;;;3.50;99.90;;;;;;5052892;28;20189;-77
2023/02/27 08:34:08;;;;;;;0.60;0.60;;;3.60;99.90;;;;;;5031266;28;20202;-77
2023/02/27 08:36:34;;;;;;;0.60;0.60;;;3.80;99.90;;;;;;5014305;28;20244;-77
2023/02/27 08:39:00;;;;;;;0.60;0.60;;;3.90;99.90;;;;;;5031541;28;20194;-77
2023/02/27 08:41:26;;;;;;;0.95;0.95;;;4.10;99.90;;;;;;5014801;28;20237;-77
2023/02/27 08:43:51;;;;;;;0.55;0.55;;;4.30;99.90;;;;;;5014793;28;20210;-77
2023/02/27 08:46:17;;;;;;;0.70;0.70;;;4.50;99.90;;;;;;5031364;28;20248;-76
2023/02/27 08:48:43;;;;;;;0.60;0.60;;;4.60;99.90;;;;;;5034726;28;20193;-77
2023/02/27 08:51:09;;;;;;;0.60;0.60;;;4.80;99.90;;;;;;5034667;28;20271;-77
2023/02/27 08:53:34;;;;;;;0.70;0.70;;;4.90;99.90;;;;;;5033923;28;20259;-77
2023/02/27 08:56:00;;;;;;;0.50;0.50;;;5.00;99.90;;;;;;5052524;28;20185;-77
2023/02/27 08:58:27;;;;;;;0.60;0.60;;;5.00;99.90;;;;;;5052223;28;20196;-77
2023/02/27 09:00:53;;;;;;;0.50;0.50;;;5.10;99.90;;;;;;5052353;28;20597;-77
2023/02/27 09:03:20;;;;;;;0.68;0.68;;;5.10;99.90;;;;;;5052115;28;20236;-77
2023/02/27 09:05:47;;;;;;;0.70;0.70;;;5.10;99.90;;;;;;5052632;28;20201;-77
2023/02/27 09:08:13;;;;;;;0.65;0.65;;;5.10;99.90;;;;;;5034452;28;20284;-77
2023/02/27 09:10:39;;;;;;;0.70;0.70;;;5.10;99.90;;;;;;5037721;28;20335;-77
2023/02/27 09:13:05;;;;;;;0.60;0.60;;;5.10;99.90;;;;;;5051010;28;20615;-77
2023/02/27 09:15:33;;;;;;;0.50;0.50;;;5.20;99.90;;;;;;5068723;28;20296;-77
2023/02/27 09:18:02;;;;;;;0.70;0.70;;;5.20;99.90;;;;;;5054177;28;20197;-77
2023/02/27 09:20:30;;;;;;;0.70;0.70;;;5.50;99.90;;;;;;5054074;28;20200;-77
2023/02/27 09:22:57;;;;;;;0.60;0.60;;;6.00;99.90;;;;;;5039388;28;20200;-77
2023/02/27 09:25:23;;;;;;;0.60;0.60;;;6.30;99.90;;;;;;5052157;28;20217;-77
2023/02/27 09:27:49;;;;;;;0.70;0.70;;;6.70;99.90;;;;;;5034280;28;20281;-77
2023/02/27 09:30:22;;;;;;;0.70;0.70;;;7.30;99.90;;;;;;5052011;28;20229;-77
2023/02/27 09:32:49;;;;;;;0.60;0.60;;;7.70;99.90;;;;;;5030774;28;20542;-77
2023/02/27 09:35:15;;;;;;;0.60;0.60;;;7.70;99.90;;;;;;5030836;28;20202;-77
2023/02/27 09:37:42;;;;;;;0.70;0.70;;;7.80;99.90;;;;;;5031984;28;20217;-78
2023/02/27 09:40:18;;;;;;;0.60;0.60;;;8.10;99.90;;;;;;5014384;28;20567;-77
2023/02/27 09:42:46;;;;;;;0.70;0.70;;;8.40;99.90;;;;;;5031973;28;20190;-78
2023/02/27 09:45:37;;;;;;;0.60;0.60;;;8.40;99.90;;;;;;5029902;28;20256;-78
2023/02/27 09:48:14;;;;;;;0.65;0.65;;;8.60;99.90;;;;;;5053290;28;20190;-78
2023/02/27 09:50:43;;;;;;;0.70;0.70;;;8.70;99.90;;;;;;5055965;28;20197;-78
2023/02/27 09:53:46;;;;;;;0.50;0.50;;;8.90;99.90;;;;;;5037815;28;20280;-78
2023/02/27 09:56:34;;;;;;;0.70;0.70;;;9.20;99.90;;;;;;4939278;29;20703;-78
2023/02/27 09:59:08;;;;;;;0.60;0.60;;;9.40;99.90;;;;;;5051381;28;20205;-77
2023/02/27 10:01:46;;;;;;;0.60;0.60;;;9.30;99.90;;;;;;5037254;28;20673;-78
2023/02/27 10:04:18;;;;;;;0.60;0.60;;;9.50;99.90;;;;;;5051602;28;20700;-78
2023/02/27 10:07:02;;;;;;;0.60;0.60;;;9.30;99.90;;;;;;5055261;28;20193;-78
2023/02/27 10:09:46;;;;;;;0.68;0.68;;;9.00;99.90;;;;;;5053966;28;20193;-78
2023/02/27 10:12:37;;;;;;;1.20;1.10;;;8.70;99.90;;;;;;5034176;28;20198;-78
2023/02/27 10:15:28;;;;;;;0.73;0.73;;;8.90;99.90;;;;;;5034115;28;20657;-78
2023/02/27 10:18:11;;;;;;;0.98;0.98;;;9.50;99.90;;;;;;5038504;28;20716;-78
2023/02/27 10:20:42;;;;;;;0.60;0.60;;;9.90;99.90;;;;;;5055085;28;20668;-78
2023/02/27 10:23:20;;;;;;;0.70;0.70;;;10.10;99.90;;;;;;5055394;28;20280;-77
2023/02/27 10:25:49;;;;;;;0.90;0.90;;;10.00;99.90;;;;;;5053743;28;20213;-77
2023/02/27 10:28:20;;;;;;;0.50;0.50;;;10.20;99.90;;;;;;5054987;28;20198;-77
2023/02/27 10:30:53;;;;;;;0.65;0.65;;;10.20;99.90;;;;;;5053720;28;20197;-77
2023/02/27 10:33:33;;;;;;;0.60;0.60;;;10.30;99.90;;;;;;5054711;28;20194;-77
2023/02/27 10:35:59;;;;;;;0.80;0.80;;;10.50;99.90;;;;;;5056526;28;20268;-76
2023/02/27 10:38:39;;;;;;;0.60;0.60;;;10.50;99.90;;;;;;5057722;28;20197;-77
2023/02/27 10:41:10;;;;;;;1.13;1.02;;;10.90;99.90;;;;;;5057658;28;20201;-77
2023/02/27 10:43:36;;;;;;;0.57;0.57;;;11.10;99.90;;;;;;5054582;28;20686;-77
2023/02/27 10:46:10;;;;;;;0.50;0.50;;;11.00;99.90;;;;;;5054819;28;20189;-77
2023/02/27 10:48:36;;;;;;;0.65;0.65;;;10.90;99.90;;;;;;5053321;28;20200;-77
2023/02/27 10:51:23;;;;;;;0.50;0.50;;;11.00;99.90;;;;;;5053494;28;20664;-77
2023/02/27 10:53:51;;;;;;;0.50;0.50;;;11.00;99.90;;;;;;5053298;28;20194;-77
2023/02/27 10:56:25;;;;;;;0.60;0.60;;;11.10;99.90;;;;;;5053455;28;20224;-77
2023/02/27 10:59:04;;;;;;;0.60;0.60;;;11.20;99.90;;;;;;5052723;28;20565;-77
2023/02/27 11:01:45;;;;;;;0.55;0.55;;;11.20;99.90;;;;;;5053897;28;20315;-77
2023/02/27 11:04:12;;;;;;;0.75;0.73;;;11.20;99.90;;;;;;5052645;28;20225;-77
2023/02/27 11:06:40;;;;;;;0.60;0.60;;;11.00;99.90;;;;;;5057964;28;20318;-77
2023/02/27 11:09:27;;;;;;;0.60;0.60;;;11.10;99.90;;;;;;5072992;28;20193;-77
2023/02/27 11:11:56;;;;;;;0.60;0.60;;;10.90;99.90;;;;;;5074656;28;20318;-78
2023/02/27 11:14:28;;;;;;;0.75;0.75;;;11.00;99.90;;;;;;5067923;28;20208;-78
2023/02/27 11:16:59;;;;;;;0.60;0.60;;;11.10;99.90;;;;;;5052795;28;20209;-78
2023/02/27 11:19:37;;;;;;;0.60;0.60;;;11.00;99.90;;;;;;5052560;28;20304;-77
2023/02/27 11:22:18;;;;;;;0.65;0.65;;;11.00;99.90;;;;;;5052702;28;20223;-78
2023/02/27 11:24:45;;;;;;;2.10;1.80;;;10.90;99.90;;;;;;5053924;28;20221;-78
2023/02/27 11:27:27;;;;;;;0.98;0.80;;;11.10;99.90;;;;;;5052732;28;20236;-78
2023/02/27 11:30:04;;;;;;;0.60;0.60;;;11.10;99.90;;;;;;5053087;28;20546;-78
2023/02/27 11:32:57;;;;;;;0.60;0.60;;;11.20;99.90;;;;;;5053483;28;20193;-78
2023/02/27 11:35:30;;;;;;;0.50;0.50;;;11.00;99.90;;;;;;5048716;28;20215;-77
2023/02/27 11:38:15;;;;;;;1.20;0.82;;;11.00;99.90;;;;;;5053728;28;20208;-77
2023/02/27 11:40:49;;;;;;;0.82;0.82;;;11.10;99.90;;;;;;5053614;28;20201;-77
2023/02/27 11:43:27;;;;;;;0.50;0.50;;;11.20;99.90;;;;;;5053716;28;20244;-77
2023/02/27 11:46:09;;;;;;;0.60;0.60;;;11.30;99.90;;;;;;5053620;28;20308;-77
2023/02/27 11:48:41;;;;;;;0.60;0.60;;;11.20;99.90;;;;;;5052060;28;20280;-77
2023/02/27 11:51:09;;;;;;;0.50;0.50;;;11.00;99.90;;;;;;5052242;28;20292;-77
2023/02/27 11:53:53;;;;;;;0.60;0.60;;;10.60;99.90;;;;;;5052007;28;20202;-77
2023/02/27 11:56:31;;;;;;;0.55;0.55;;;10.50;99.90;;;;;;5052092;28;20200;-77
2023/02/27 11:58:59;;;;;;;0.60;0.60;;;10.50;99.90;;;;;;5056535;28;20197;-78
2023/02/27 12:01:34;;;;;;;0.50;0.50;;;10.70;99.90;;;;;;5072843;28;20935;-77
2023/02/27 12:04:13;;;;;;;0.50;0.50;;;10.90;99.90;;;;;;5071574;28;20690;-76
2023/02/27 12:06:50;;;;;;;1.38;1.27;;;11.10;99.90;;;;;;5073007;28;20196;-77
2023/02/27 12:09:40;;;;;;;0.60;0.60;;;11.40;99.90;;;;;;5073083;28;20659;-76
2023/02/27 12:12:18;;;;;;;0.70;0.70;;;11.40;99.90;;;;;;5053333;28;20197;-77
2023/02/27 12:14:53;;;;;;;0.60;0.60;;;11.40;99.90;;;;;;5052969;28;20194;-77
2023/02/27 12:17:29;;;;;;;0.57;0.57;;;11.20;99.90;;;;;;5051704;28;20726;-77
2023/02/27 12:20:24;;;;;;;0.60;0.60;;;11.00;99.90;;;;;;5051688;28;20205;-77
2023/02/27 12:22:52;;;;;;;0.50;0.50;;;11.00;99.90;;;;;;5052904;28;20197;-77
2023/02/27 12:25:29;;;;;;;0.55;0.55;;;11.00;99.90;;;;;;5051709;28;20241;-78
2023/02/27 12:28:10;;;;;;;0.60;0.60;;;10.80;99.90;;;;;;5051577;28;20433;-77
2023/02/27 12:30:49;;;;;;;0.60;0.60;;;11.00;99.90;;;;;;5052596;28;20606;-78
2023/02/27 12:33:32;;;;;;;0.60;0.60;;;11.20;99.90;;;;;;5052393;28;20730;-77
2023/02/27 12:36:02;;;;;;;0.90;0.90;;;11.10;99.90;;;;;;5052796;28;20660;-77
2023/02/27 12:38:28;;;;;;;0.52;0.52;;;10.90;99.90;;;;;;5052509;28;20198;-78
2023/02/27 12:41:35;;;;;;;0.50;0.50;;;10.90;99.90;;;;;;5052657;28;20570;-77
2023/02/27 12:44:21;;;;;;;0.50;0.50;;;10.80;99.90;;;;;;5052619;28;20572;-77
2023/02/27 12:47:10;;;;;;;0.50;0.50;;;10.60;99.90;;;;;;5050854;28;20684;-77
2023/02/27 12:50:01;;;;;;;0.60;0.60;;;10.70;99.90;;;;;;5052312;28;20205;-78
2023/02/27 12:53:05;;;;;;;0.50;0.50;;;10.40;99.90;;;;;;5052250;28;20181;-77
2023/02/27 12:55:40;;;;;;;0.60;0.60;;;10.40;99.90;;;;;;5052078;28;20585;-77
2023/02/27 12:58:33;;;;;;;0.57;0.57;;;10.40;99.90;;;;;;5052353;28;20667;-81
2023/02/27 13:01:24;;;;;;;0.52;0.52;;;10.30;99.90;;;;;;5032404;28;20569;-77
2023/02/27 13:03:59;;;;;;;0.60;0.60;;;10.20;99.90;;;;;;5032238;28;20301;-77
2023/02/27 13:06:44;;;;;;;0.50;0.50;;;10.20;99.90;;;;;;5034187;28;20676;-78
2023/02/27 13:09:24;;;;;;;0.60;0.60;;;10.20;99.90;;;;;;5034393;28;20287;-77
2023/02/27 13:12:02;;;;;;;0.60;0.60;;;10.10;99.90;;;;;;5052321;28;20193;-77
2023/02/27 13:14:37;;;;;;;0.50;0.50;;;10.00;99.90;;;;;;5034218;28;20687;-77
2023/02/27 13:17:17;;;;;;;0.60;0.60;;;9.60;99.90;;;;;;5052355;28;20207;-77
2023/02/27 13:20:03;;;;;;;0.60;0.60;;;9.30;99.90;;;;;;5052152;28;20189;-77
2023/02/27 13:22:37;;;;;;;0.60;0.60;;;9.20;99.90;;;;;;5034589;28;20208;-77
2023/02/27 13:25:11;;;;;;;0.60;0.60;;;8.90;99.90;;;;;;5056270;28;20552;-77